IL64 weather

Martin Airport
Lincoln, Illinois, United States

Public forecast

Using degrees Fahrenheit for public forecast. Weather courtesy of forecast.io.

METAR (pilot weather report)

Closest report is Logan County Airport, 7.7 nm (14.2 km) E. Retrieved 2019/06/15 23:35 UTC (19 minutes ago):

KAAA 152335Z AUTO 24003KT 10SM SCT022 SCT027 25/21 A2975 RMK AO2 T02530213

TAF (pilot weather forecast)

Closest forecast is Abraham Lincoln Capital Airport, 21.8 nm (40.4 km) SSW. Retrieved 2019/06/15 18:30 UTC (5 hours ago):

TAF KSPI 151727Z 1518/1618 17012KT P6SM VCSH SCT020 BKN090 FM152000 22012G20KT P6SM SHRA VCTS OVC050CB TEMPO 1522/1602 4SM TSRA BR OVC025CB FM160300 23006KT 6SM -SHRA BR VCTS BKN050CB FM161000 23006KT 6SM -SHRA BR VCTS OVC020CB FM161300 26007KT P6SM OVC015